• Join FlightAware (Why Join?)
  • Login
  • US Flag 
09:58PM EDT


 

Airport Tracker/Info


-or-


 

Live Flight TrackerFlight Track Log ✈ LOF3416 ✈ 15-Apr-2013 ✈ KIAD - KDAY

Flight Track Log - Related Links

Times and Time Zones

All times are in EDT time to prevent confusion due to time zone crossing. See the LOF3416 flight status page for this flight to view local times or setup timezone preferences in your user account.

Time Position Orientation Groundspeed Altitude Reporting Facility
EDT Latitude Longitude Course Direction KTS MPH feet Rate Location/Type
10:29PM 38.9000 -77.4667 288° West 175 201 3,300  Level Potomac TRACON
10:30PM 38.8667 -77.5167 229° Southwest 225 259 5,600 2,280 Climbing Potomac TRACON
10:32PM 38.8514 -77.6789 263° West 258 297 10,000 1,860 Climbing Washington Center
10:33PM 38.8600 -77.7831 276° West 288 331 11,000 1,500 Climbing Washington Center
10:34PM 38.8686 -77.8819 276° West 301 346 13,100 2,100 Climbing Washington Center
10:35PM 38.8994 -78.0306 288° West  Level FlightAware Approximate
10:35PM 38.8894 -77.9867 284° West 306 352 15,300  Level Washington Center
10:36PM 38.9208 -78.0917 291° West 311 358 17,000 1,500 Climbing Washington Center
10:37PM 38.9539 -78.1994 292° West 317 365 18,400 1,500 Climbing Washington Center
10:38PM 38.9617 -78.3172 275° West 323 372 20,100 1,680 Climbing Washington Center
10:39PM 38.9672 -78.4403 273° West 335 386 21,800 1,440 Climbing Washington Center
10:40PM 38.9744 -78.5742 274° West 342 394 23,000 1,500 Climbing Washington Center
10:41PM 38.9736 -78.6917 270° West 363 418 24,800 1,560 Climbing Washington Center
10:42PM 38.9764 -78.8200 272° West 368 423 26,200 1,260 Climbing Washington Center
10:43PM 38.9792 -78.9481 272° West 368 423 27,400 900 Climbing Washington Center
10:44PM 38.9817 -79.0792 271° West 368 423 28,000 300 Climbing Washington Center
10:45PM 38.9881 -79.2183 273° West 380 437 28,000  Level Washington Center
10:46PM 38.9942 -79.3603 273° West 395 455 28,000  Level Washington Center
10:47PM 38.9914 -79.5069 269° West 403 464 28,000  Level Washington Center
10:48PM 39.0006 -79.6758 274° West 431 496 28,000  Level Washington Center
10:49PM 39.0039 -79.8147 272° West 417 480 28,000  Level Washington Center
10:50PM 39.0047 -79.9644 270° West 407 468 28,000  Level Washington Center
10:53PM 39.0061 -80.2717 270° West 410 472 28,000  Level Indianapolis Center
10:54PM 39.0094 -80.4178 272° West 409 471 28,000  Level Indianapolis Center
10:55PM 39.0108 -80.5642 271° West 409 471 28,000  Level Indianapolis Center
10:56PM 39.0294 -80.7356 278° West 410 472 28,000  Level Indianapolis Center
10:57PM 39.0503 -80.8783 281° West 408 470 28,000  Level Indianapolis Center
10:58PM 39.0714 -81.0214 281° West 409 471 28,000  Level Indianapolis Center
10:59PM 39.0925 -81.1639 281° West 409 471 28,000  Level Indianapolis Center
11:00PM 39.1125 -81.3047 280° West 403 464 28,000  Level Indianapolis Center
11:01PM 39.1314 -81.4458 280° West 404 465 28,000  Level Indianapolis Center
11:02PM 39.1517 -81.5869 281° West 404 465 28,000  Level Indianapolis Center
11:03PM 39.1714 -81.7292 280° West 405 466 28,000 -240 Level Indianapolis Center
11:04PM 39.1906 -81.8714 280° West 406 467 27,600 -1,080 Descending Indianapolis Center
11:05PM 39.2133 -82.0383 280° West 396 456 25,900 -1,620 Descending Indianapolis Center
11:06PM 39.2322 -82.1783 280° West 396 456 24,400 -1,500 Descending Indianapolis Center
11:07PM 39.2506 -82.3181 280° West 397 457 22,900 -1,380 Descending Indianapolis Center
11:08PM 39.2681 -82.4544 279° West 389 448 21,700 -1,500 Descending Indianapolis Center
11:09PM 39.2864 -82.5969 279° West 372 428 19,900 -1,440 Descending Indianapolis Center
11:10PM 39.3039 -82.7311 280° West 376 433 18,800 -1,020 Descending Indianapolis Center
11:11PM 39.3208 -82.8661 279° West 377 434 17,900 -1,080 Descending Indianapolis Center
11:12PM 39.3372 -82.9944 279° West 363 418 16,700 -1,260 Descending Indianapolis Center
11:13PM 39.3525 -83.1208 279° West 353 406 15,400 -1,260 Descending Indianapolis Center
11:14PM 39.3681 -83.2458 279° West 349 402 14,300 -1,200 Descending Indianapolis Center
11:15PM 39.3836 -83.3711 279° West 348 400 13,000 -1,140 Descending Indianapolis Center
11:16PM 39.3986 -83.4925 279° West 340 391 12,000 -960 Descending Indianapolis Center
11:17PM 39.4136 -83.6092 279° West 327 376 11,100 -540 Descending Indianapolis Center
11:18PM 39.4564 -83.7072 299° West 333 383 11,000 -300 Descending Indianapolis Center
11:19PM 39.5278 -83.7708 326° Northwest 310 357 10,500 -1,200 Descending Indianapolis Center
11:20PM 39.5875 -83.8211 327° Northwest 261 300 8,700 -1,800 Descending Indianapolis Center
11:21PM 39.6683 -83.8883 327° Northwest 267 307 6,600 -1,500 Descending Indianapolis Center
11:22PM 39.7158 -83.9269 328° Northwest 262 302 5,500 -1,260 Descending Indianapolis Center
11:23PM 39.7808 -83.9814 327° Northwest 272 313 4,400 -780 Descending Indianapolis Center
11:24PM 39.8436 -84.0358 326° Northwest 277 319 4,000 -420 Descending Indianapolis Center